コモドロリバダビア の空港の天気 - METARとTAF

Comodoro Rivadavia Aerodrome ( SAVC / CRD ) - アルゼンチン チュブ州コモドロリバダビア
飛行場実況気象(Metar)
観測時間05/28 07:00 ART (05/28 10:00 UTC)
風向・風速南西 6m/s
視程10km以上
天気現象
なし
気温5℃
湿度61%
気圧1015hPa
METARSAVC 281000Z 23012KT CAVOK 05/M02 Q1015 RMK PP000
過去の天気等 Google飛行場航空写真 Wunderground天気予報

過去48時間のMETAR

飛行場予報(TAF)
発表時間: 5/28 02:00 ART (5/28 05:00 UTC)
予報対象時間: 28日3時 ART ~ 29日3時 ART
風向・風速南西 5m/s
視程10km以上
全天の4割程度の雲 雲底高度 760m
全天を覆う雲 雲底高度 1520m
28日5時 ART ~ 28日9時 ART に 確率 40% で一時的に
天気現象弱いしゅう雨雪
全天の8割程度の雲 雲底高度 760m
28日13時 ART ~ 28日15時 ART に徐々に
風向・風速南西 5m/s
全天の4割程度の雲 雲底高度 910m
28日21時 ART ~ 28日23時 ART に徐々に
風向・風速西 5m/s
視程10km以上
なし
TAF SAVC 280500Z 2806/2906 23010KT 9999 SCT025 OVC050 TX08/2818Z TN01/2811Z
PROB40 TEMPO 2808/2812 -SHRASN BKN025
BECMG 2816/2818 23010KT SCT030
BECMG 2900/2902 27010KT CAVOK